Time;durP1;ratioP1;P1;durP2;ratioP2;P2;SDS_P1;SDS_P2;PMS_P1;PMS_P2;Temp;Humidity;BMP_temperature;BMP_pressure;BME280_temperature;BME280_humidity;BME280_pressure;Samples;Min_cycle;Max_cycle;Signal;HPM_P1;HPM_P2
2021/11/08 00:00:32;;;;;;;32.13;14.23;;;;;;;;;;4929877;28;20027;-69
2021/11/08 00:03:00;;;;;;;41.08;11.02;;;;;;;;;;4946107;28;20043;-69
2021/11/08 00:05:27;;;;;;;38.78;12.40;;;;;;;;;;4945464;28;20130;-69
2021/11/08 00:07:59;;;;;;;37.08;12.35;;;;;;;;;;4927251;29;20554;-68
2021/11/08 00:10:30;;;;;;;37.15;11.35;;;;;;;;;;4947288;28;20047;-69
2021/11/08 00:12:57;;;;;;;30.25;10.98;;;;;;;;;;4945648;28;20158;-69
2021/11/08 00:15:30;;;;;;;36.05;11.80;;;;;;;;;;4950769;28;20086;-68
2021/11/08 00:18:08;;;;;;;37.17;11.45;;;;;;;;;;4951947;28;20308;-69
2021/11/08 00:20:45;;;;;;;19.88;9.48;;;;;;;;;;4944556;28;20412;-69
2021/11/08 00:23:11;;;;;;;26.85;11.23;;;;;;;;;;4950137;28;20015;-68
2021/11/08 00:25:41;;;;;;;36.70;11.20;;;;;;;;;;4950815;28;20087;-69
2021/11/08 00:28:12;;;;;;;46.47;11.95;;;;;;;;;;4942847;28;20035;-69
2021/11/08 00:30:38;;;;;;;31.77;11.45;;;;;;;;;;4951678;28;20039;-68
2021/11/08 00:33:08;;;;;;;35.38;10.95;;;;;;;;;;4950907;29;20027;-68
2021/11/08 00:35:34;;;;;;;31.25;11.00;;;;;;;;;;4949851;29;20043;-69
2021/11/08 00:38:00;;;;;;;40.05;12.75;;;;;;;;;;4924141;29;20742;-69
2021/11/08 00:40:26;;;;;;;31.50;11.60;;;;;;;;;;4951024;29;20147;-69
2021/11/08 00:42:53;;;;;;;28.83;12.07;;;;;;;;;;4949870;28;20215;-68
2021/11/08 00:45:19;;;;;;;36.25;11.43;;;;;;;;;;4950731;28;20039;-68
2021/11/08 00:47:45;;;;;;;40.85;11.25;;;;;;;;;;4948897;28;20035;-69
2021/11/08 00:50:12;;;;;;;33.13;13.30;;;;;;;;;;4950267;29;20034;-69
2021/11/08 00:52:38;;;;;;;30.80;12.57;;;;;;;;;;4951040;29;20032;-69
2021/11/08 00:55:05;;;;;;;31.35;12.18;;;;;;;;;;4951835;28;20482;-69
2021/11/08 00:57:33;;;;;;;32.17;11.63;;;;;;;;;;4950962;29;20031;-68
2021/11/08 01:00:00;;;;;;;30.83;13.07;;;;;;;;;;4936055;29;20062;-69
2021/11/08 01:02:29;;;;;;;40.72;12.23;;;;;;;;;;4951034;28;20035;-69
2021/11/08 01:04:56;;;;;;;33.58;12.40;;;;;;;;;;4952002;28;20041;-68
2021/11/08 01:07:22;;;;;;;34.53;12.10;;;;;;;;;;4947161;28;20114;-69
2021/11/08 01:09:48;;;;;;;32.63;11.93;;;;;;;;;;4950276;28;20455;-69
2021/11/08 01:12:14;;;;;;;26.27;11.40;;;;;;;;;;4953121;28;20031;-69
2021/11/08 01:14:41;;;;;;;34.22;11.40;;;;;;;;;;4952479;29;20035;-68
2021/11/08 01:17:07;;;;;;;41.58;12.50;;;;;;;;;;4953134;28;20035;-69
2021/11/08 01:19:34;;;;;;;34.83;12.25;;;;;;;;;;4954101;28;20027;-68
2021/11/08 01:22:06;;;;;;;34.33;11.40;;;;;;;;;;4954404;28;20031;-69
2021/11/08 01:24:33;;;;;;;27.23;13.43;;;;;;;;;;4952651;28;20035;-68
2021/11/08 01:27:00;;;;;;;30.13;12.38;;;;;;;;;;4957611;28;20028;-68
2021/11/08 01:29:26;;;;;;;31.20;12.82;;;;;;;;;;4951414;29;20088;-69
2021/11/08 01:31:52;;;;;;;27.35;12.30;;;;;;;;;;4953569;28;20085;-69
2021/11/08 01:34:18;;;;;;;35.17;12.35;;;;;;;;;;4953319;29;20027;-69
2021/11/08 01:36:51;;;;;;;29.83;11.13;;;;;;;;;;4953335;28;20039;-69
2021/11/08 01:39:24;;;;;;;34.50;12.57;;;;;;;;;;4949636;28;20082;-68
2021/11/08 01:41:50;;;;;;;25.85;12.30;;;;;;;;;;4951831;28;20122;-69
2021/11/08 01:44:16;;;;;;;25.75;11.82;;;;;;;;;;4933230;28;20027;-68
2021/11/08 01:46:42;;;;;;;24.55;12.27;;;;;;;;;;4954930;28;20019;-68
2021/11/08 01:49:09;;;;;;;36.75;11.18;;;;;;;;;;4953163;28;20404;-68
2021/11/08 01:51:35;;;;;;;26.88;12.15;;;;;;;;;;4953458;28;20035;-68
2021/11/08 01:54:06;;;;;;;27.27;12.60;;;;;;;;;;4953510;28;20027;-68
2021/11/08 01:56:32;;;;;;;33.38;13.07;;;;;;;;;;4953851;28;20509;-68
2021/11/08 01:58:59;;;;;;;28.45;11.10;;;;;;;;;;4950096;28;20456;-68
2021/11/08 02:01:25;;;;;;;31.48;13.40;;;;;;;;;;4953637;28;20019;-68
2021/11/08 02:03:51;;;;;;;29.42;12.32;;;;;;;;;;4954188;28;20031;-68
2021/11/08 02:06:18;;;;;;;37.83;13.02;;;;;;;;;;4938194;29;20020;-68
2021/11/08 02:08:44;;;;;;;26.00;10.88;;;;;;;;;;4950886;28;20440;-68
2021/11/08 02:11:11;;;;;;;35.22;12.90;;;;;;;;;;4955977;28;20034;-69
2021/11/08 02:13:37;;;;;;;33.25;12.10;;;;;;;;;;4952166;28;20031;-68
2021/11/08 02:16:04;;;;;;;28.25;12.20;;;;;;;;;;4954702;28;20031;-68
2021/11/08 02:18:30;;;;;;;27.48;13.65;;;;;;;;;;4951869;28;20039;-68
2021/11/08 02:20:57;;;;;;;28.80;12.25;;;;;;;;;;4949092;28;20118;-69
2021/11/08 02:23:25;;;;;;;29.80;12.05;;;;;;;;;;4957275;28;20038;-68
2021/11/08 02:25:55;;;;;;;32.97;12.90;;;;;;;;;;4951567;28;20023;-68
2021/11/08 02:28:22;;;;;;;37.85;12.98;;;;;;;;;;4945849;28;20070;-68
2021/11/08 02:30:53;;;;;;;34.67;12.07;;;;;;;;;;4952829;29;20118;-69
2021/11/08 02:33:20;;;;;;;25.75;12.43;;;;;;;;;;4954285;28;20641;-68
2021/11/08 02:35:46;;;;;;;30.08;12.48;;;;;;;;;;4952186;29;20512;-68
2021/11/08 02:38:29;;;;;;;30.02;12.07;;;;;;;;;;4956327;28;20034;-68
2021/11/08 02:40:56;;;;;;;29.23;13.70;;;;;;;;;;4951785;29;20512;-68
2021/11/08 02:43:25;;;;;;;30.40;13.15;;;;;;;;;;4951942;28;20146;-68
2021/11/08 02:45:57;;;;;;;28.73;12.50;;;;;;;;;;4951687;29;20023;-68
2021/11/08 02:48:24;;;;;;;28.02;13.48;;;;;;;;;;4950799;28;20030;-68
2021/11/08 02:50:56;;;;;;;28.02;12.82;;;;;;;;;;4953221;28;20512;-68
2021/11/08 02:53:24;;;;;;;30.58;13.02;;;;;;;;;;4953539;28;20039;-69
2021/11/08 02:55:50;;;;;;;24.48;12.63;;;;;;;;;;4934739;29;20503;-68
2021/11/08 02:58:17;;;;;;;31.48;12.90;;;;;;;;;;4950394;28;20397;-68
2021/11/08 03:00:43;;;;;;;27.52;12.68;;;;;;;;;;4948729;28;20403;-68
2021/11/08 03:03:09;;;;;;;22.35;12.50;;;;;;;;;;4959038;28;20023;-69
2021/11/08 03:05:37;;;;;;;47.72;14.57;;;;;;;;;;4952523;28;20034;-68
2021/11/08 03:08:04;;;;;;;33.20;12.30;;;;;;;;;;4949340;28;20677;-68
2021/11/08 03:10:31;;;;;;;35.25;12.35;;;;;;;;;;4957024;28;20039;-68
2021/11/08 03:13:00;;;;;;;27.55;11.95;;;;;;;;;;4950999;28;20035;-68
2021/11/08 03:15:41;;;;;;;34.90;12.07;;;;;;;;;;4952397;28;20066;-68
2021/11/08 03:18:12;;;;;;;27.13;12.98;;;;;;;;;;4931950;29;20216;-68
2021/11/08 03:20:38;;;;;;;29.73;12.25;;;;;;;;;;4956768;28;20163;-68
2021/11/08 03:23:07;;;;;;;28.50;12.00;;;;;;;;;;4955248;28;20042;-68
2021/11/08 03:25:40;;;;;;;30.75;12.20;;;;;;;;;;4950697;28;20066;-68
2021/11/08 03:28:09;;;;;;;22.05;11.88;;;;;;;;;;4952281;28;20102;-68
2021/11/08 03:30:38;;;;;;;25.00;11.77;;;;;;;;;;4952450;28;20054;-68
2021/11/08 03:33:05;;;;;;;27.85;12.52;;;;;;;;;;4954516;28;20041;-68
2021/11/08 03:35:31;;;;;;;34.22;12.60;;;;;;;;;;4938466;29;20027;-68
2021/11/08 03:37:58;;;;;;;31.25;12.20;;;;;;;;;;4952249;28;20524;-68
2021/11/08 03:40:26;;;;;;;31.73;12.85;;;;;;;;;;4952303;28;20082;-68
2021/11/08 03:42:54;;;;;;;26.08;11.43;;;;;;;;;;4934038;28;20027;-68
2021/11/08 03:45:20;;;;;;;28.88;12.35;;;;;;;;;;4951825;28;20023;-68
2021/11/08 03:47:46;;;;;;;40.78;13.88;;;;;;;;;;4952649;28;20030;-68
2021/11/08 03:50:13;;;;;;;28.15;11.98;;;;;;;;;;4954019;28;20502;-68
2021/11/08 03:52:39;;;;;;;20.63;11.60;;;;;;;;;;4933597;28;20047;-68
2021/11/08 03:55:07;;;;;;;28.13;12.43;;;;;;;;;;4952268;28;20027;-68
2021/11/08 03:57:33;;;;;;;40.50;13.27;;;;;;;;;;4947145;28;20035;-68
2021/11/08 03:59:59;;;;;;;22.70;12.80;;;;;;;;;;4951781;28;20018;-68
2021/11/08 04:02:26;;;;;;;28.35;13.23;;;;;;;;;;4953010;28;20027;-68
2021/11/08 04:04:52;;;;;;;24.75;11.43;;;;;;;;;;4955376;28;20038;-68
2021/11/08 04:07:19;;;;;;;24.30;12.32;;;;;;;;;;4938990;29;20019;-68
2021/11/08 04:09:45;;;;;;;40.55;12.38;;;;;;;;;;4948196;28;20400;-68
2021/11/08 04:12:11;;;;;;;32.50;12.25;;;;;;;;;;4953592;28;20680;-68
2021/11/08 04:14:40;;;;;;;32.42;12.43;;;;;;;;;;4949097;28;20031;-68
2021/11/08 04:17:06;;;;;;;32.50;11.60;;;;;;;;;;4956683;28;20031;-68
2021/11/08 04:19:33;;;;;;;29.75;11.35;;;;;;;;;;4951032;28;20027;-68
2021/11/08 04:22:01;;;;;;;29.23;12.02;;;;;;;;;;4952060;28;20019;-68
2021/11/08 04:24:28;;;;;;;26.13;10.77;;;;;;;;;;4938639;28;20031;-68
2021/11/08 04:26:54;;;;;;;29.75;11.45;;;;;;;;;;4931317;29;20040;-68
2021/11/08 04:29:22;;;;;;;30.42;11.02;;;;;;;;;;4948031;28;20059;-68
2021/11/08 04:31:49;;;;;;;36.38;11.77;;;;;;;;;;4952542;28;20498;-68
2021/11/08 04:37:04;;;;;;;35.78;12.50;;;;;;;;;;4953499;28;20399;-68
2021/11/08 04:45:40;;;;;;;25.70;11.85;;;;;;;;;;4952049;29;20334;-68
2021/11/08 04:48:48;;;;;;;26.10;11.60;;;;;;;;;;4957457;28;20030;-68
2021/11/08 05:20:52;;;;;;;31.98;12.55;;;;;;;;;;4951670;28;20047;-68
2021/11/08 05:23:04;;;;;;;22.33;11.23;;;;;;;;;;4963007;28;20121;-68
2021/11/08 05:28:39;;;;;;;33.03;13.18;;;;;;;;;;4950517;28;20102;-68
2021/11/08 05:31:06;;;;;;;22.63;11.18;;;;;;;;;;4951813;28;20436;-68
2021/11/08 05:33:32;;;;;;;33.55;13.02;;;;;;;;;;4956129;28;20039;-68
2021/11/08 05:35:58;;;;;;;31.50;12.13;;;;;;;;;;4956387;28;20098;-68
2021/11/08 05:38:25;;;;;;;25.38;12.20;;;;;;;;;;4951521;28;20055;-68
2021/11/08 05:40:51;;;;;;;24.63;11.65;;;;;;;;;;4952460;28;20266;-68
2021/11/08 05:43:17;;;;;;;27.80;12.27;;;;;;;;;;4948096;28;20019;-68
2021/11/08 05:45:44;;;;;;;28.58;11.77;;;;;;;;;;4952459;28;20047;-68
2021/11/08 05:48:10;;;;;;;25.05;10.93;;;;;;;;;;4956167;28;20057;-68
2021/11/08 05:50:38;;;;;;;33.90;13.10;;;;;;;;;;4952326;28;20515;-68
2021/11/08 05:53:05;;;;;;;20.83;11.10;;;;;;;;;;4935615;28;20031;-68
2021/11/08 05:58:24;;;;;;;26.73;12.20;;;;;;;;;;4950755;28;20424;-68
2021/11/08 06:50:03;;;;;;;19.95;11.32;;;;;;;;;;4967684;28;20398;-69
2021/11/08 06:52:30;;;;;;;27.02;11.02;;;;;;;;;;4952083;28;20097;-68
2021/11/08 06:54:57;;;;;;;26.67;11.82;;;;;;;;;;4966916;28;20125;-69
2021/11/08 06:57:31;;;;;;;27.08;11.63;;;;;;;;;;4968974;28;20409;-68
2021/11/08 06:59:57;;;;;;;17.88;10.50;;;;;;;;;;4965185;28;20097;-69
2021/11/08 07:02:25;;;;;;;22.65;11.23;;;;;;;;;;4969750;28;20042;-68
2021/11/08 07:04:51;;;;;;;34.45;11.95;;;;;;;;;;4966277;28;20266;-68
2021/11/08 07:07:17;;;;;;;20.88;10.30;;;;;;;;;;4966895;28;20391;-68
2021/11/08 07:09:43;;;;;;;21.90;11.43;;;;;;;;;;4960863;28;20030;-68
2021/11/08 07:12:11;;;;;;;21.05;10.85;;;;;;;;;;5061433;23;20053;-69
2021/11/08 07:14:37;;;;;;;27.98;12.35;;;;;;;;;;5003501;28;20388;-68
2021/11/08 07:19:42;;;;;;;25.15;11.20;;;;;;;;;;4995207;23;20042;-68
2021/11/08 07:22:08;;;;;;;32.10;11.40;;;;;;;;;;4991117;28;20396;-68
2021/11/08 07:24:34;;;;;;;25.48;10.30;;;;;;;;;;4972852;28;20525;-68
2021/11/08 07:27:01;;;;;;;24.70;11.18;;;;;;;;;;4991437;28;20440;-68
2021/11/08 07:29:28;;;;;;;21.48;12.35;;;;;;;;;;4987026;28;20393;-68
2021/11/08 07:31:54;;;;;;;24.45;10.68;;;;;;;;;;4974972;28;20034;-68
2021/11/08 07:34:21;;;;;;;24.10;9.77;;;;;;;;;;4972711;28;20034;-68
2021/11/08 07:36:47;;;;;;;22.35;11.05;;;;;;;;;;4985795;28;20030;-68
2021/11/08 07:39:13;;;;;;;31.70;11.13;;;;;;;;;;4970103;28;20037;-68
2021/11/08 07:41:39;;;;;;;28.60;10.55;;;;;;;;;;4991289;28;20034;-68
2021/11/08 07:44:06;;;;;;;28.55;11.23;;;;;;;;;;4985687;28;20026;-68
2021/11/08 07:46:32;;;;;;;33.47;11.73;;;;;;;;;;4987691;28;20030;-68
2021/11/08 07:48:58;;;;;;;25.08;11.90;;;;;;;;;;4982056;28;20019;-69
2021/11/08 07:51:24;;;;;;;29.02;11.57;;;;;;;;;;4984538;28;20035;-68
2021/11/08 07:53:50;;;;;;;22.08;11.73;;;;;;;;;;4989790;28;20141;-68
2021/11/08 07:56:17;;;;;;;27.90;13.10;;;;;;;;;;4991122;28;20031;-69
2021/11/08 07:58:43;;;;;;;26.27;13.38;;;;;;;;;;4982161;28;20041;-68
2021/11/08 08:01:09;;;;;;;35.42;15.20;;;;;;;;;;4975553;28;20401;-68
2021/11/08 08:03:36;;;;;;;26.63;14.13;;;;;;;;;;4972810;28;20022;-68
2021/11/08 08:06:03;;;;;;;29.23;14.65;;;;;;;;;;4990682;28;20026;-69
2021/11/08 08:08:29;;;;;;;30.92;14.13;;;;;;;;;;4987969;28;20112;-69
2021/11/08 08:10:55;;;;;;;27.30;12.85;;;;;;;;;;4990804;28;20037;-68
2021/11/08 08:13:25;;;;;;;25.75;13.15;;;;;;;;;;4990217;28;20022;-69
2021/11/08 08:15:52;;;;;;;20.92;13.25;;;;;;;;;;4990618;28;20041;-69
2021/11/08 08:18:18;;;;;;;29.60;13.35;;;;;;;;;;4988607;28;20398;-68
2021/11/08 08:20:45;;;;;;;29.75;13.00;;;;;;;;;;4991330;28;20038;-68
2021/11/08 08:23:11;;;;;;;29.48;13.32;;;;;;;;;;4994467;28;20026;-69
2021/11/08 08:25:37;;;;;;;31.08;14.15;;;;;;;;;;4994382;28;20393;-69
2021/11/08 08:28:03;;;;;;;30.55;13.55;;;;;;;;;;4982926;28;20125;-69
2021/11/08 08:30:29;;;;;;;25.20;12.57;;;;;;;;;;4981413;28;20431;-69
2021/11/08 08:32:55;;;;;;;26.52;13.25;;;;;;;;;;4993162;28;20388;-69
2021/11/08 08:35:22;;;;;;;33.88;13.43;;;;;;;;;;4994234;28;20043;-68
2021/11/08 08:37:48;;;;;;;36.10;12.98;;;;;;;;;;4992033;28;20080;-68
2021/11/08 08:40:15;;;;;;;30.95;15.25;;;;;;;;;;4993841;28;20054;-69
2021/11/08 08:42:42;;;;;;;27.80;14.35;;;;;;;;;;4992778;28;20026;-69
2021/11/08 08:45:09;;;;;;;34.30;14.45;;;;;;;;;;4994691;28;20046;-69
2021/11/08 08:47:35;;;;;;;24.70;13.05;;;;;;;;;;4976524;28;20030;-68
2021/11/08 08:50:01;;;;;;;27.83;14.27;;;;;;;;;;4974565;28;20023;-69
2021/11/08 08:52:27;;;;;;;22.35;13.10;;;;;;;;;;4994881;28;20117;-68
2021/11/08 08:54:54;;;;;;;31.63;13.13;;;;;;;;;;4975597;28;20469;-69
2021/11/08 08:57:20;;;;;;;24.15;11.68;;;;;;;;;;4994611;28;20035;-69
2021/11/08 08:59:46;;;;;;;23.38;12.50;;;;;;;;;;4984842;28;20401;-68
2021/11/08 09:02:13;;;;;;;22.80;12.40;;;;;;;;;;4994553;28;20116;-69
2021/11/08 09:04:39;;;;;;;19.63;13.20;;;;;;;;;;4992063;28;20034;-68
2021/11/08 09:07:06;;;;;;;28.95;15.10;;;;;;;;;;4994416;28;20037;-68
2021/11/08 09:09:33;;;;;;;23.38;13.57;;;;;;;;;;4989174;28;20033;-68
2021/11/08 09:11:59;;;;;;;22.98;11.73;;;;;;;;;;4994428;28;20173;-68
2021/11/08 09:14:31;;;;;;;21.48;12.80;;;;;;;;;;4993531;28;20034;-68
2021/11/08 09:16:58;;;;;;;26.23;12.43;;;;;;;;;;4983710;28;20034;-68
2021/11/08 09:19:24;;;;;;;22.58;12.02;;;;;;;;;;4991297;28;20046;-68
2021/11/08 09:21:50;;;;;;;25.48;12.57;;;;;;;;;;4993458;28;20026;-68
2021/11/08 09:24:17;;;;;;;23.33;11.73;;;;;;;;;;4993923;28;20077;-68
2021/11/08 09:26:43;;;;;;;26.70;12.35;;;;;;;;;;4976088;28;20085;-68
2021/11/08 09:29:10;;;;;;;26.85;12.80;;;;;;;;;;4985424;28;20030;-68
2021/11/08 09:31:36;;;;;;;23.45;12.75;;;;;;;;;;4993464;28;20030;-68
2021/11/08 09:34:08;;;;;;;25.98;12.45;;;;;;;;;;4993511;28;20026;-68
2021/11/08 09:36:35;;;;;;;32.97;12.00;;;;;;;;;;4975736;28;20038;-68
2021/11/08 09:39:04;;;;;;;22.95;11.88;;;;;;;;;;4990569;28;20026;-68
2021/11/08 09:41:32;;;;;;;22.90;12.50;;;;;;;;;;4987123;28;20034;-69
2021/11/08 09:44:02;;;;;;;17.48;12.02;;;;;;;;;;4985126;28;20022;-68
2021/11/08 09:46:29;;;;;;;23.98;11.88;;;;;;;;;;4993771;28;20018;-68
2021/11/08 09:48:56;;;;;;;23.92;12.52;;;;;;;;;;4973086;28;20084;-68
2021/11/08 09:51:22;;;;;;;28.58;12.95;;;;;;;;;;4993042;28;20027;-68
2021/11/08 09:53:48;;;;;;;35.33;13.65;;;;;;;;;;4985075;28;20406;-68
2021/11/08 09:56:15;;;;;;;28.65;13.50;;;;;;;;;;4993345;28;20037;-68
2021/11/08 09:58:41;;;;;;;19.98;12.18;;;;;;;;;;4989666;28;20034;-68
2021/11/08 10:01:09;;;;;;;21.42;12.20;;;;;;;;;;4993502;28;20043;-68
2021/11/08 10:03:36;;;;;;;27.75;12.07;;;;;;;;;;4992457;28;20030;-68
2021/11/08 10:06:03;;;;;;;24.38;12.02;;;;;;;;;;4992769;28;20022;-68
2021/11/08 10:08:33;;;;;;;18.48;11.57;;;;;;;;;;4990579;28;20034;-68
2021/11/08 10:11:01;;;;;;;27.27;13.30;;;;;;;;;;4985894;28;20058;-68
2021/11/08 10:13:28;;;;;;;21.33;12.85;;;;;;;;;;4987723;28;20034;-68
2021/11/08 10:16:08;;;;;;;21.95;11.40;;;;;;;;;;4992667;28;20034;-68
2021/11/08 10:18:35;;;;;;;24.42;11.55;;;;;;;;;;4988025;28;20050;-68
2021/11/08 10:21:21;;;;;;;22.45;12.57;;;;;;;;;;4986615;28;20392;-68
2021/11/08 10:23:49;;;;;;;23.92;11.75;;;;;;;;;;4973812;28;20448;-68
2021/11/08 10:26:18;;;;;;;23.73;11.32;;;;;;;;;;4992576;28;20018;-68
2021/11/08 10:28:49;;;;;;;20.10;11.50;;;;;;;;;;4971491;28;20022;-68
2021/11/08 10:31:17;;;;;;;26.35;10.95;;;;;;;;;;4974993;28;20030;-68
2021/11/08 10:33:44;;;;;;;22.38;11.35;;;;;;;;;;4972354;28;20121;-68
2021/11/08 10:36:13;;;;;;;24.73;11.70;;;;;;;;;;4971600;28;20096;-68
2021/11/08 10:38:40;;;;;;;23.23;10.68;;;;;;;;;;4988580;28;20499;-68
2021/11/08 10:41:12;;;;;;;29.33;11.82;;;;;;;;;;4990590;28;20026;-68
2021/11/08 10:43:40;;;;;;;26.55;11.43;;;;;;;;;;4990369;28;20157;-68
2021/11/08 10:46:08;;;;;;;30.15;11.55;;;;;;;;;;4992350;28;20026;-68
2021/11/08 10:48:36;;;;;;;26.65;10.85;;;;;;;;;;4971141;28;20019;-68
2021/11/08 10:51:03;;;;;;;23.50;10.65;;;;;;;;;;4973965;28;20117;-68
2021/11/08 10:53:30;;;;;;;22.25;11.00;;;;;;;;;;4990875;28;20176;-69
2021/11/08 10:55:59;;;;;;;25.60;11.10;;;;;;;;;;4986945;28;20081;-69
2021/11/08 10:58:25;;;;;;;24.10;11.57;;;;;;;;;;4986636;28;20385;-68
2021/11/08 11:00:53;;;;;;;20.10;12.13;;;;;;;;;;4989462;28;20228;-68
2021/11/08 11:03:20;;;;;;;19.30;11.75;;;;;;;;;;4991957;28;20519;-68
2021/11/08 11:05:47;;;;;;;22.83;12.10;;;;;;;;;;4989996;28;20030;-68
2021/11/08 11:08:16;;;;;;;33.47;11.25;;;;;;;;;;4971405;28;20018;-68
2021/11/08 11:10:43;;;;;;;23.80;11.70;;;;;;;;;;4991403;28;20034;-69
2021/11/08 11:13:16;;;;;;;26.20;11.05;;;;;;;;;;4972562;28;20030;-68
2021/11/08 11:15:43;;;;;;;25.77;10.80;;;;;;;;;;4990016;28;20030;-68
2021/11/08 11:18:11;;;;;;;23.00;10.75;;;;;;;;;;4987740;28;20054;-68
2021/11/08 11:20:39;;;;;;;29.27;11.98;;;;;;;;;;4990350;28;21370;-68
2021/11/08 11:23:19;;;;;;;23.15;10.57;;;;;;;;;;4975496;28;20109;-69
2021/11/08 11:25:54;;;;;;;22.88;11.18;;;;;;;;;;4990556;28;20031;-68
2021/11/08 11:28:31;;;;;;;30.40;12.25;;;;;;;;;;4992608;28;20030;-68
2021/11/08 11:30:57;;;;;;;21.23;10.52;;;;;;;;;;4990168;28;20286;-68
2021/11/08 11:33:24;;;;;;;26.48;11.73;;;;;;;;;;4974126;28;20037;-68
2021/11/08 11:35:58;;;;;;;28.48;12.15;;;;;;;;;;4972878;28;20110;-68
2021/11/08 11:38:30;;;;;;;30.35;12.40;;;;;;;;;;4988165;28;20034;-67
2021/11/08 11:41:02;;;;;;;26.17;12.18;;;;;;;;;;4985976;28;20505;-68
2021/11/08 11:43:31;;;;;;;24.98;12.25;;;;;;;;;;4988787;28;20035;-68
2021/11/08 11:45:58;;;;;;;26.40;12.98;;;;;;;;;;4983139;28;20030;-68
2021/11/08 11:48:26;;;;;;;21.48;11.93;;;;;;;;;;4970573;28;20034;-68
2021/11/08 11:50:52;;;;;;;18.33;12.50;;;;;;;;;;4984338;28;20073;-68
2021/11/08 11:53:19;;;;;;;23.90;12.25;;;;;;;;;;4989925;28;20030;-68
2021/11/08 11:55:46;;;;;;;29.90;11.88;;;;;;;;;;4972931;28;20034;-68
2021/11/08 11:58:13;;;;;;;18.52;11.45;;;;;;;;;;4987923;28;20055;-68
2021/11/08 12:00:40;;;;;;;29.90;12.52;;;;;;;;;;4972072;28;20038;-67
2021/11/08 12:03:07;;;;;;;27.27;10.85;;;;;;;;;;4972249;28;20117;-68
2021/11/08 12:05:34;;;;;;;22.95;11.05;;;;;;;;;;4988003;28;20493;-68
2021/11/08 12:08:02;;;;;;;30.70;10.38;;;;;;;;;;4968531;28;20023;-68
2021/11/08 12:10:28;;;;;;;27.00;11.32;;;;;;;;;;4990160;28;20057;-68
2021/11/08 12:12:55;;;;;;;28.13;10.98;;;;;;;;;;4988606;28;20109;-68
2021/11/08 12:15:26;;;;;;;22.83;10.70;;;;;;;;;;4978590;28;20030;-68
2021/11/08 12:17:54;;;;;;;29.50;13.13;;;;;;;;;;4987265;28;20044;-68
2021/11/08 12:20:27;;;;;;;21.77;10.85;;;;;;;;;;4990016;28;20080;-68
2021/11/08 12:22:53;;;;;;;28.27;12.00;;;;;;;;;;4984990;28;20026;-69
2021/11/08 12:25:21;;;;;;;24.83;12.93;;;;;;;;;;4986039;28;20101;-68
2021/11/08 12:27:52;;;;;;;21.08;11.40;;;;;;;;;;4987564;28;20144;-68
2021/11/08 12:30:20;;;;;;;23.00;10.48;;;;;;;;;;4990026;28;20041;-68
2021/11/08 12:32:57;;;;;;;19.65;10.18;;;;;;;;;;4986807;28;20026;-69
2021/11/08 12:35:25;;;;;;;23.05;11.57;;;;;;;;;;4987241;28;20065;-68
2021/11/08 12:37:52;;;;;;;17.13;9.25;;;;;;;;;;4966223;28;20042;-68
2021/11/08 12:40:20;;;;;;;23.60;11.38;;;;;;;;;;4988409;28;20030;-69
2021/11/08 12:42:48;;;;;;;26.70;11.98;;;;;;;;;;4989420;28;20054;-69
2021/11/08 12:45:16;;;;;;;22.02;10.20;;;;;;;;;;4990483;28;20034;-68
2021/11/08 12:47:42;;;;;;;29.50;10.25;;;;;;;;;;4989164;28;20121;-68
2021/11/08 12:50:10;;;;;;;19.13;10.95;;;;;;;;;;4987254;28;20033;-69
2021/11/08 12:52:40;;;;;;;22.70;10.48;;;;;;;;;;4989903;28;20496;-68
2021/11/08 12:55:06;;;;;;;24.85;11.30;;;;;;;;;;4989133;28;20501;-69
2021/11/08 12:57:33;;;;;;;26.60;10.60;;;;;;;;;;4990274;28;20065;-68
2021/11/08 13:00:07;;;;;;;27.77;11.88;;;;;;;;;;4987506;28;20026;-68
2021/11/08 13:02:38;;;;;;;22.60;11.02;;;;;;;;;;4971762;28;20045;-68
2021/11/08 13:05:06;;;;;;;29.73;11.82;;;;;;;;;;4991246;28;20037;-69
2021/11/08 13:07:36;;;;;;;22.42;11.35;;;;;;;;;;4997288;28;20041;-68
2021/11/08 13:10:05;;;;;;;23.27;11.98;;;;;;;;;;4991297;28;20053;-68
2021/11/08 13:12:34;;;;;;;24.60;11.10;;;;;;;;;;4992555;28;20066;-68
2021/11/08 13:15:02;;;;;;;25.00;11.60;;;;;;;;;;4988678;28;20113;-69
2021/11/08 13:17:29;;;;;;;19.10;10.45;;;;;;;;;;4991646;28;20753;-68
2021/11/08 13:19:57;;;;;;;23.42;10.88;;;;;;;;;;4988149;28;20028;-68
2021/11/08 13:22:31;;;;;;;27.75;11.38;;;;;;;;;;4974402;28;20026;-69
2021/11/08 13:24:58;;;;;;;25.15;11.20;;;;;;;;;;4989834;28;20032;-68
2021/11/08 13:27:25;;;;;;;29.83;10.10;;;;;;;;;;4991949;28;20033;-68
2021/11/08 13:29:55;;;;;;;19.52;11.07;;;;;;;;;;4986773;28;20322;-68
2021/11/08 13:32:21;;;;;;;28.27;10.07;;;;;;;;;;4990578;28;20452;-67
2021/11/08 13:34:47;;;;;;;23.58;9.80;;;;;;;;;;4990273;28;20473;-68
2021/11/08 13:37:13;;;;;;;21.33;10.07;;;;;;;;;;4974094;28;20034;-68
2021/11/08 13:39:39;;;;;;;25.92;11.35;;;;;;;;;;4989715;28;20042;-68
2021/11/08 13:42:06;;;;;;;25.65;11.13;;;;;;;;;;4990275;28;20027;-69
2021/11/08 13:44:32;;;;;;;23.35;10.50;;;;;;;;;;4991490;28;20045;-68
2021/11/08 13:46:58;;;;;;;21.30;10.85;;;;;;;;;;4992564;28;20089;-68
2021/11/08 13:49:25;;;;;;;22.10;10.85;;;;;;;;;;4987668;28;20034;-68
2021/11/08 13:51:51;;;;;;;30.05;12.40;;;;;;;;;;4990099;28;20033;-68
2021/11/08 13:54:17;;;;;;;22.40;9.98;;;;;;;;;;4970736;28;20038;-68
2021/11/08 13:56:46;;;;;;;48.30;12.32;;;;;;;;;;4988596;28;20029;-68
2021/11/08 13:59:17;;;;;;;22.27;11.35;;;;;;;;;;4986022;28;20501;-68
2021/11/08 14:01:44;;;;;;;19.03;10.23;;;;;;;;;;4988766;28;20121;-68
2021/11/08 14:04:10;;;;;;;24.23;12.25;;;;;;;;;;4985881;28;20022;-68
2021/11/08 14:06:38;;;;;;;22.52;10.68;;;;;;;;;;4991475;28;20386;-68
2021/11/08 14:09:06;;;;;;;26.08;11.73;;;;;;;;;;4990464;28;20392;-68
2021/11/08 14:11:36;;;;;;;19.90;10.45;;;;;;;;;;4988698;28;20038;-68
2021/11/08 14:14:07;;;;;;;21.13;11.55;;;;;;;;;;4989997;28;20419;-68
2021/11/08 14:16:34;;;;;;;32.22;10.95;;;;;;;;;;4991010;28;20030;-68
2021/11/08 14:19:00;;;;;;;28.60;11.73;;;;;;;;;;4988261;28;20453;-68
2021/11/08 14:21:27;;;;;;;19.25;10.57;;;;;;;;;;4991549;28;20034;-67
2021/11/08 14:23:58;;;;;;;21.55;12.05;;;;;;;;;;4991658;28;20030;-68
2021/11/08 14:26:25;;;;;;;22.50;12.65;;;;;;;;;;4991715;28;20026;-68
2021/11/08 14:28:51;;;;;;;20.15;10.50;;;;;;;;;;4970620;28;20030;-68
2021/11/08 14:31:23;;;;;;;21.13;10.27;;;;;;;;;;4992293;28;20038;-68
2021/11/08 14:33:51;;;;;;;23.92;10.27;;;;;;;;;;4990298;28;20035;-68
2021/11/08 14:36:20;;;;;;;23.02;11.38;;;;;;;;;;4973447;28;20081;-68
2021/11/08 14:38:53;;;;;;;25.35;11.15;;;;;;;;;;4987235;28;20113;-68
2021/11/08 14:41:20;;;;;;;27.60;12.10;;;;;;;;;;4991643;28;20030;-68
2021/11/08 14:43:58;;;;;;;29.67;12.25;;;;;;;;;;4989804;28;20105;-67
2021/11/08 14:46:33;;;;;;;22.35;9.90;;;;;;;;;;4973695;28;20026;-68
2021/11/08 14:49:07;;;;;;;24.45;10.68;;;;;;;;;;4982167;28;20397;-68
2021/11/08 14:51:33;;;;;;;23.45;11.10;;;;;;;;;;4990289;28;20093;-68
2021/11/08 14:54:02;;;;;;;24.02;11.57;;;;;;;;;;4991375;28;20033;-67
2021/11/08 14:56:29;;;;;;;26.98;10.93;;;;;;;;;;4990175;28;20157;-68
2021/11/08 14:58:57;;;;;;;32.90;11.55;;;;;;;;;;4987079;28;20030;-68
2021/11/08 15:01:24;;;;;;;27.60;10.00;;;;;;;;;;4985925;28;20037;-68
2021/11/08 15:04:04;;;;;;;27.75;10.93;;;;;;;;;;4989956;28;20027;-68
2021/11/08 15:06:31;;;;;;;30.70;11.02;;;;;;;;;;4991565;28;20328;-68
2021/11/08 15:09:03;;;;;;;27.50;12.45;;;;;;;;;;4988034;28;20038;-68
2021/11/08 15:11:29;;;;;;;24.27;11.25;;;;;;;;;;4988245;28;20513;-68
2021/11/08 15:14:03;;;;;;;20.85;10.15;;;;;;;;;;4988420;28;20165;-68
2021/11/08 15:16:29;;;;;;;26.23;11.65;;;;;;;;;;4989187;28;20134;-68
2021/11/08 15:19:02;;;;;;;28.83;11.18;;;;;;;;;;4988579;28;20573;-68
2021/11/08 15:21:33;;;;;;;27.42;11.65;;;;;;;;;;4989709;28;20042;-68
2021/11/08 15:24:00;;;;;;;;;;;;;;;;;;4970718;28;20057;-68
2021/11/08 15:26:28;;;;;;;38.78;12.80;;;;;;;;;;4986150;28;19933;-68
2021/11/08 15:28:57;;;;;;;42.50;13.88;;;;;;;;;;4968177;28;20030;-68
2021/11/08 15:31:25;;;;;;;26.00;11.10;;;;;;;;;;4989607;28;20107;-68
2021/11/08 15:33:53;;;;;;;20.67;10.75;;;;;;;;;;4988154;28;20420;-68
2021/11/08 15:36:22;;;;;;;28.63;11.38;;;;;;;;;;4988204;28;20062;-68
2021/11/08 15:38:49;;;;;;;22.05;10.40;;;;;;;;;;4986704;28;20099;-68
2021/11/08 15:41:16;;;;;;;32.17;11.40;;;;;;;;;;4989099;28;20405;-68
2021/11/08 15:43:43;;;;;;;27.90;13.65;;;;;;;;;;4987859;28;20029;-68
2021/11/08 15:46:13;;;;;;;24.58;10.20;;;;;;;;;;4989576;28;20033;-68
2021/11/08 15:48:40;;;;;;;33.33;12.68;;;;;;;;;;4986743;28;20045;-68
2021/11/08 15:51:07;;;;;;;29.10;10.70;;;;;;;;;;4970109;28;20045;-68
2021/11/08 15:53:33;;;;;;;19.75;10.23;;;;;;;;;;4986916;28;20085;-69
2021/11/08 15:56:01;;;;;;;22.25;10.88;;;;;;;;;;4988829;28;20117;-68
2021/11/08 15:58:27;;;;;;;26.75;11.95;;;;;;;;;;4969526;28;20031;-68